Terminal Aerodrome Forecast
Issued by NWS

Home | Current Version | Previous Version | Text Only | Print | Product List | Glossary On
Versions: 1 2 3 4 5 6 7 8 9 10 11 12 13
000
FTUS45 KRIW 282300
TAFWRL
TAF
KWRL 282325Z 2900/2924 36011KT P6SM VCTS SCT035 BKN070CB
     FM290200 35010KT P6SM BKN070
     FM290600 32006KT P6SM -SHRA OVC035
     FM292100 06007KT P6SM VCSH BKN060=

USA.gov is the U.S. government's official web portal to all federal, state and local government web resources and services.